createdAt,value
2023-04-19T00:01:31.251Z,11.31
2023-04-19T00:03:57.910Z,11.32
2023-04-19T00:06:24.743Z,11.33
2023-04-19T00:08:51.500Z,11.35
2023-04-19T00:11:18.208Z,11.36
2023-04-19T00:13:44.742Z,11.36
2023-04-19T00:16:11.324Z,11.38
2023-04-19T00:18:39.240Z,11.36
2023-04-19T00:21:06.241Z,11.37
2023-04-19T00:23:32.800Z,11.37
2023-04-19T00:26:02.051Z,11.36
2023-04-19T00:28:28.642Z,11.36
2023-04-19T00:30:55.198Z,11.37
2023-04-19T00:33:21.758Z,11.37
2023-04-19T00:35:50.137Z,11.35
2023-04-19T00:38:16.721Z,11.36
2023-04-19T00:40:44.789Z,11.35
2023-04-19T00:43:11.412Z,11.36
2023-04-19T00:45:38.414Z,11.36
2023-04-19T00:48:05.657Z,11.35
2023-04-19T00:50:32.366Z,11.36
2023-04-19T00:53:00.364Z,11.36
2023-04-19T00:55:27.057Z,11.35
2023-04-19T00:57:53.796Z,11.34
2023-04-19T01:00:20.696Z,11.36
2023-04-19T01:02:47.666Z,11.34
2023-04-19T01:05:14.773Z,11.35
2023-04-19T01:07:41.480Z,11.33
2023-04-19T01:10:10.251Z,11.34
2023-04-19T01:12:36.988Z,11.33
2023-04-19T01:15:04.434Z,11.29
2023-04-19T01:17:32.260Z,11.30
2023-04-19T01:19:59.926Z,11.28
2023-04-19T01:22:28.107Z,11.28
2023-04-19T01:24:54.667Z,11.27
2023-04-19T01:27:21.306Z,11.26
2023-04-19T01:29:47.926Z,11.24
2023-04-19T01:32:14.567Z,11.24
2023-04-19T01:34:41.086Z,11.24
2023-04-19T01:37:07.742Z,11.24
2023-04-19T01:39:35.798Z,11.23
2023-04-19T01:42:02.485Z,11.22
2023-04-19T01:44:30.013Z,11.21
2023-04-19T01:46:56.748Z,11.22
2023-04-19T01:49:23.371Z,11.23
2023-04-19T01:51:50.011Z,11.21
2023-04-19T01:54:16.965Z,11.20
2023-04-19T01:56:45.120Z,11.19
2023-04-19T01:59:11.764Z,11.16
2023-04-19T02:01:38.723Z,11.15
2023-04-19T02:04:05.532Z,11.12
2023-04-19T02:06:32.353Z,11.10
2023-04-19T02:08:59.088Z,11.08
2023-04-19T02:11:25.778Z,11.03
2023-04-19T02:13:55.722Z,10.99
2023-04-19T02:16:22.989Z,10.95
2023-04-19T02:18:50.436Z,10.95
2023-04-19T02:21:18.219Z,10.96
2023-04-19T02:23:44.768Z,10.94
2023-04-19T02:26:11.442Z,10.94
2023-04-19T02:28:38.244Z,10.90
2023-04-19T02:31:06.993Z,10.84
2023-04-19T02:33:35.356Z,10.80
2023-04-19T02:36:01.942Z,10.76
2023-04-19T02:38:28.501Z,10.73
2023-04-19T02:40:55.201Z,10.69
2023-04-19T02:43:21.738Z,10.68
2023-04-19T02:45:48.389Z,10.69
2023-04-19T02:48:16.356Z,10.74
2023-04-19T02:50:43.071Z,10.78
2023-04-19T02:53:09.634Z,10.82
2023-04-19T02:55:36.232Z,10.83
2023-04-19T02:58:14.774Z,10.85
2023-04-19T03:00:51.170Z,10.87
2023-04-19T03:03:29.192Z,10.91
2023-04-19T03:06:02.782Z,10.94
2023-04-19T03:08:42.052Z,10.93
2023-04-19T03:11:17.872Z,10.92
2023-04-19T03:13:57.055Z,10.88
2023-04-19T03:16:30.580Z,10.84
2023-04-19T03:19:11.126Z,10.83
2023-04-19T03:21:55.064Z,10.84
2023-04-19T03:24:30.882Z,10.86
2023-04-19T03:27:22.121Z,10.89
2023-04-19T03:29:59.880Z,10.90
2023-04-19T03:32:39.060Z,10.92
2023-04-19T03:35:14.291Z,10.95
2023-04-19T03:37:54.127Z,10.96
2023-04-19T03:40:28.167Z,10.97
2023-04-19T03:43:08.069Z,10.99
2023-04-19T03:45:48.137Z,11.00
2023-04-19T03:48:22.245Z,11.01
2023-04-19T03:51:04.061Z,11.01
2023-04-19T03:53:37.569Z,11.00
2023-04-19T03:56:17.066Z,11.01
2023-04-19T03:58:51.487Z,11.00
2023-04-19T04:01:33.130Z,11.00
2023-04-19T04:04:06.668Z,10.98
2023-04-19T04:06:49.039Z,10.97
2023-04-19T04:09:29.125Z,10.92
2023-04-19T04:12:09.060Z,10.89
2023-04-19T04:14:42.559Z,10.88
2023-04-19T04:17:22.068Z,10.84
2023-04-19T04:19:55.703Z,10.85
2023-04-19T04:22:39.189Z,10.85
2023-04-19T04:25:14.684Z,10.84
2023-04-19T04:27:48.074Z,10.85
2023-04-19T04:30:25.294Z,10.82
2023-04-19T04:33:08.171Z,10.83
2023-04-19T04:35:42.866Z,10.81
2023-04-19T04:38:29.124Z,10.81
2023-04-19T04:41:04.890Z,10.81
2023-04-19T04:43:44.088Z,10.77
2023-04-19T04:46:28.131Z,10.78
2023-04-19T04:49:08.097Z,10.75
2023-04-19T04:51:49.196Z,10.75
2023-04-19T04:54:24.260Z,10.74
2023-04-19T04:57:06.134Z,10.74
2023-04-19T04:59:46.106Z,10.73
2023-04-19T05:02:28.147Z,10.73
2023-04-19T05:05:08.098Z,10.72
2023-04-19T05:07:48.100Z,10.72
2023-04-19T05:10:22.921Z,10.72
2023-04-19T05:13:02.131Z,10.75
2023-04-19T05:15:35.676Z,10.79
2023-04-19T05:18:16.078Z,10.79
2023-04-19T05:20:49.557Z,10.86
2023-04-19T05:23:33.080Z,10.92
2023-04-19T05:26:08.321Z,10.97
2023-04-19T05:28:50.198Z,10.94
2023-04-19T05:31:57.464Z,10.81
2023-04-19T05:34:40.158Z,10.72
2023-04-19T05:37:22.406Z,10.60
2023-04-19T05:40:03.165Z,10.51
2023-04-19T05:42:38.495Z,10.44
2023-04-19T05:45:33.112Z,10.38
2023-04-19T05:48:13.239Z,10.37
2023-04-19T05:50:59.217Z,10.34
2023-04-19T05:54:00.069Z,10.32
2023-04-19T05:56:26.910Z,10.31
2023-04-19T05:58:54.905Z,10.30
2023-04-19T06:01:21.761Z,10.30
2023-04-19T06:03:48.626Z,10.26
2023-04-19T06:06:15.415Z,10.25
2023-04-19T06:08:42.041Z,10.27
2023-04-19T06:11:22.933Z,10.28
2023-04-19T06:13:51.553Z,10.30
2023-04-19T06:16:20.239Z,10.31
2023-04-19T06:18:46.781Z,10.33
2023-04-19T06:21:13.451Z,10.39
2023-04-19T06:23:40.057Z,10.38
2023-04-19T06:26:06.664Z,10.43
2023-04-19T06:28:33.272Z,10.44
2023-04-19T06:30:59.921Z,10.49
2023-04-19T06:33:27.843Z,10.49
2023-04-19T06:35:54.487Z,10.59
2023-04-19T06:38:21.063Z,10.58
2023-04-19T06:40:47.629Z,10.64
2023-04-19T06:43:14.216Z,10.64
2023-04-19T06:45:40.912Z,10.68
2023-04-19T06:48:07.570Z,10.71
2023-04-19T06:50:35.520Z,10.75
2023-04-19T06:53:04.559Z,10.79
2023-04-19T06:55:31.411Z,10.81
2023-04-19T06:57:57.991Z,10.84
2023-04-19T07:00:24.834Z,10.85
2023-04-19T07:02:51.465Z,10.93
2023-04-19T07:05:18.526Z,10.99
2023-04-19T07:07:46.528Z,10.98
2023-04-19T07:10:13.099Z,11.02
2023-04-19T07:12:39.646Z,11.04
2023-04-19T07:15:07.127Z,11.05
2023-04-19T07:17:34.822Z,11.06
2023-04-19T07:20:01.439Z,11.03
2023-04-19T07:22:28.128Z,11.10
2023-04-19T07:24:56.020Z,11.19
2023-04-19T07:27:22.626Z,11.22
2023-04-19T07:29:49.223Z,11.33
2023-04-19T07:32:15.994Z,11.43
2023-04-19T07:34:42.826Z,11.48
2023-04-19T07:37:09.553Z,11.55
2023-04-19T07:39:36.165Z,11.64
2023-04-19T07:42:04.198Z,11.68
2023-04-19T07:44:30.910Z,11.77
2023-04-19T07:46:57.637Z,11.79
2023-04-19T07:49:24.456Z,11.86
2023-04-19T07:51:51.079Z,11.91
2023-04-19T07:54:18.045Z,11.91
2023-04-19T07:56:44.963Z,11.92
2023-04-19T07:59:12.833Z,12.01
2023-04-19T08:01:39.540Z,12.04
2023-04-19T08:04:06.642Z,12.20
2023-04-19T08:06:33.509Z,12.29
2023-04-19T08:09:00.421Z,12.39
2023-04-19T08:11:27.055Z,12.48
2023-04-19T08:14:04.553Z,12.54
2023-04-19T08:17:19.447Z,12.60
2023-04-19T08:19:28.099Z,13.03
2023-04-19T08:21:54.624Z,15.06
2023-04-19T08:24:21.212Z,16.11
2023-04-19T08:26:47.833Z,16.85
2023-04-19T08:29:14.698Z,18.53
2023-04-19T08:31:45.129Z,20.49
2023-04-19T08:34:11.806Z,21.83
2023-04-19T08:36:45.728Z,22.74
2023-04-19T08:39:31.834Z,23.49
2023-04-19T08:42:08.575Z,24.40
2023-04-19T08:44:53.820Z,24.30
2023-04-19T08:47:32.419Z,24.91
2023-04-19T08:50:14.031Z,25.06
2023-04-19T08:52:55.936Z,24.88
2023-04-19T08:55:28.453Z,24.98
2023-04-19T08:57:56.796Z,25.46
2023-04-19T09:00:23.577Z,26.02
2023-04-19T09:02:53.090Z,26.07
2023-04-19T09:05:20.186Z,26.59
2023-04-19T09:07:48.057Z,26.84
2023-04-19T09:10:19.324Z,25.83
2023-04-19T09:13:00.700Z,26.18
2023-04-19T09:15:36.575Z,26.40
2023-04-19T09:18:06.466Z,25.07
2023-04-19T09:20:37.074Z,25.13
2023-04-19T09:23:05.111Z,25.30
2023-04-19T09:25:49.301Z,24.69
2023-04-19T09:28:18.338Z,24.96
2023-04-19T09:30:58.296Z,24.65
2023-04-19T09:33:35.022Z,26.32
2023-04-19T09:36:02.116Z,25.22
2023-04-19T09:38:28.761Z,25.33
2023-04-19T09:41:06.863Z,25.57
2023-04-19T09:46:03.261Z,26.30
2023-04-19T09:48:29.856Z,26.20
2023-04-19T09:51:04.632Z,27.03
2023-04-19T09:53:34.623Z,26.87
2023-04-19T09:56:03.128Z,26.27
2023-04-19T10:01:13.454Z,26.18
2023-04-19T10:03:44.760Z,27.02
2023-04-19T10:06:31.795Z,27.22
2023-04-19T10:09:03.329Z,26.62
2023-04-19T10:11:33.002Z,26.47
2023-04-19T10:14:03.839Z,27.03
2023-04-19T10:16:30.801Z,27.39
2023-04-19T10:18:58.325Z,26.88
2023-04-19T10:21:28.372Z,27.51
2023-04-19T10:23:55.562Z,28.04
2023-04-19T10:26:22.226Z,27.16
2023-04-19T10:28:48.994Z,27.00
2023-04-19T10:31:15.641Z,27.33
2023-04-19T10:33:42.357Z,27.06
2023-04-19T10:36:09.852Z,27.66
2023-04-19T10:38:39.968Z,27.94
2023-04-19T10:41:07.067Z,27.38
2023-04-19T10:43:34.674Z,27.20
2023-04-19T10:46:05.991Z,27.16
2023-04-19T10:48:34.469Z,27.43
2023-04-19T10:51:02.435Z,27.37
2023-04-19T10:53:47.644Z,28.02
2023-04-19T10:56:15.253Z,27.80
2023-04-19T10:59:16.121Z,28.48
2023-04-19T11:01:44.484Z,28.08
2023-04-19T11:04:12.928Z,27.85
2023-04-19T11:06:57.306Z,28.79
2023-04-19T11:09:26.510Z,27.61
2023-04-19T11:11:54.511Z,27.33
2023-04-19T11:14:21.366Z,27.78
2023-04-19T11:16:48.110Z,28.02
2023-04-19T11:19:15.801Z,28.50
2023-04-19T11:21:42.636Z,28.00
2023-04-19T11:24:10.049Z,28.15
2023-04-19T11:26:38.188Z,27.63
2023-04-19T11:29:05.172Z,27.51
2023-04-19T11:31:32.673Z,27.60
2023-04-19T11:33:59.631Z,27.60
2023-04-19T11:36:26.399Z,27.49
2023-04-19T11:38:53.549Z,27.21
2023-04-19T11:41:20.273Z,27.03
2023-04-19T11:43:48.476Z,26.91
2023-04-19T11:46:15.282Z,27.05
2023-04-19T11:48:50.944Z,27.46
2023-04-19T11:51:17.648Z,27.26
2023-04-19T11:53:44.318Z,27.34
2023-04-19T11:56:11.079Z,28.18
2023-04-19T11:58:40.968Z,28.69
2023-04-19T12:01:10.521Z,28.79
2023-04-19T12:03:41.396Z,29.25
2023-04-19T12:06:11.552Z,29.69
2023-04-19T12:08:39.576Z,29.06
2023-04-19T12:11:06.610Z,28.91
2023-04-19T12:13:33.731Z,29.04
2023-04-19T12:16:00.998Z,28.18
2023-04-19T12:18:42.333Z,28.72
2023-04-19T12:21:08.713Z,30.45
2023-04-19T12:23:35.286Z,28.56
2023-04-19T12:26:04.845Z,28.57
2023-04-19T12:28:31.493Z,28.61
2023-04-19T12:30:58.308Z,28.64
2023-04-19T12:33:24.902Z,28.49
2023-04-19T12:35:52.881Z,28.91
2023-04-19T12:38:19.402Z,28.86
2023-04-19T12:40:45.992Z,28.97
2023-04-19T12:43:12.702Z,28.83
2023-04-19T12:45:39.231Z,28.68
2023-04-19T12:48:05.887Z,28.13
2023-04-19T12:50:32.514Z,27.52
2023-04-19T12:53:00.497Z,27.94
2023-04-19T12:55:27.186Z,28.39
2023-04-19T12:57:53.808Z,28.67
2023-04-19T13:00:20.641Z,29.29
2023-04-19T13:02:47.612Z,29.05
2023-04-19T13:05:14.198Z,29.50
2023-04-19T13:07:41.235Z,29.92
2023-04-19T13:10:09.921Z,30.42
2023-04-19T13:12:36.593Z,30.20
2023-04-19T13:15:04.876Z,29.91
2023-04-19T13:17:31.775Z,30.09
2023-04-19T13:19:58.452Z,30.00
2023-04-19T13:22:24.955Z,29.63
2023-04-19T13:24:51.664Z,30.33
2023-04-19T13:27:19.533Z,30.75
2023-04-19T13:29:46.279Z,30.10
2023-04-19T13:32:12.855Z,30.06
2023-04-19T13:34:39.725Z,29.79
2023-04-19T13:37:06.415Z,30.14
2023-04-19T13:39:33.311Z,30.29
2023-04-19T13:41:59.933Z,29.80
2023-04-19T13:44:28.249Z,29.34
2023-04-19T13:46:55.008Z,29.75
2023-04-19T13:49:21.617Z,29.84
2023-04-19T13:51:50.846Z,29.85
2023-04-19T13:54:19.515Z,30.10
2023-04-19T13:56:47.428Z,29.99
2023-04-19T13:59:15.298Z,30.47
2023-04-19T14:01:43.327Z,30.32
2023-04-19T14:04:10.480Z,29.81
2023-04-19T14:06:37.371Z,29.52
2023-04-19T14:09:04.163Z,29.01
2023-04-19T14:11:30.879Z,28.60
2023-04-19T14:13:57.960Z,28.72
2023-04-19T14:16:24.707Z,28.20
2023-04-19T14:18:52.741Z,27.92
2023-04-19T14:21:19.550Z,27.72
2023-04-19T14:23:46.193Z,27.89
2023-04-19T14:26:12.777Z,27.70
2023-04-19T14:28:39.298Z,28.09
2023-04-19T14:31:05.956Z,28.29
2023-04-19T14:33:32.633Z,28.38
2023-04-19T14:36:01.004Z,28.05
2023-04-19T14:38:27.565Z,27.16
2023-04-19T14:40:54.158Z,27.30
2023-04-19T14:43:20.793Z,27.04
2023-04-19T14:45:48.482Z,27.14
2023-04-19T14:48:15.324Z,26.83
2023-04-19T14:50:41.940Z,26.80
2023-04-19T14:53:09.877Z,26.82
2023-04-19T14:55:37.240Z,26.40
2023-04-19T14:58:03.955Z,26.51
2023-04-19T15:00:30.720Z,26.12
2023-04-19T15:02:57.510Z,26.30
2023-04-19T15:05:26.721Z,26.11
2023-04-19T15:07:53.505Z,26.41
2023-04-19T15:10:21.489Z,25.99
2023-04-19T15:12:48.104Z,26.13
2023-04-19T15:15:14.723Z,25.92
2023-04-19T15:17:41.328Z,25.94
2023-04-19T15:20:09.184Z,25.68
2023-04-19T15:22:35.824Z,25.72
2023-04-19T15:25:02.430Z,25.20
2023-04-19T15:27:30.458Z,24.56
2023-04-19T15:29:57.074Z,23.87
2023-04-19T15:32:23.670Z,23.55
2023-04-19T15:34:50.283Z,23.27
2023-04-19T15:37:16.859Z,22.94
2023-04-19T15:39:43.554Z,22.79
2023-04-19T15:42:10.140Z,22.74
2023-04-19T15:44:38.108Z,21.87
2023-04-19T15:47:05.009Z,21.67
2023-04-19T15:49:31.648Z,21.35
2023-04-19T15:51:58.276Z,21.52
2023-04-19T15:54:25.008Z,21.46
2023-04-19T15:56:51.605Z,21.28
2023-04-19T15:59:18.370Z,21.51
2023-04-19T16:01:46.476Z,21.29
2023-04-19T16:04:13.227Z,21.22
2023-04-19T16:06:40.009Z,21.17
2023-04-19T16:09:06.748Z,20.81
2023-04-19T16:11:33.517Z,20.31
2023-04-19T16:14:00.145Z,20.15
2023-04-19T16:16:26.748Z,20.00
2023-04-19T16:18:54.788Z,19.96
2023-04-19T16:21:21.454Z,19.96
2023-04-19T16:23:48.011Z,19.81
2023-04-19T16:26:14.611Z,19.61
2023-04-19T16:28:41.185Z,19.49
2023-04-19T16:31:07.802Z,19.17
2023-04-19T16:33:34.455Z,19.18
2023-04-19T16:36:02.395Z,18.78
2023-04-19T16:38:28.969Z,18.68
2023-04-19T16:40:55.524Z,18.67
2023-04-19T16:43:22.186Z,18.47
2023-04-19T16:45:48.893Z,18.39
2023-04-19T16:48:15.625Z,18.55
2023-04-19T16:50:42.348Z,18.58
2023-04-19T16:53:11.018Z,18.49
2023-04-19T16:55:38.110Z,18.32
2023-04-19T16:58:04.934Z,18.13
2023-04-19T17:00:31.594Z,17.98
2023-04-19T17:02:58.541Z,17.86
2023-04-19T17:05:25.242Z,17.74
2023-04-19T17:07:52.134Z,17.74
2023-04-19T17:10:20.915Z,17.66
2023-04-19T17:12:47.522Z,17.58
2023-04-19T17:15:14.211Z,17.61
2023-04-19T17:17:40.827Z,17.36
2023-04-19T17:20:08.886Z,17.19
2023-04-19T17:22:35.492Z,17.12
2023-04-19T17:25:02.369Z,17.07
2023-04-19T17:27:30.292Z,16.94
2023-04-19T17:29:56.836Z,16.87
2023-04-19T17:32:23.435Z,16.89
2023-04-19T17:34:49.978Z,16.82
2023-04-19T17:37:16.609Z,16.72
2023-04-19T17:39:43.232Z,16.54
2023-04-19T17:42:09.789Z,16.46
2023-04-19T17:44:37.676Z,16.27
2023-04-19T17:47:04.523Z,16.02
2023-04-19T17:49:31.199Z,15.97
2023-04-19T17:51:57.795Z,15.71
2023-04-19T17:54:24.490Z,15.58
2023-04-19T17:56:51.043Z,15.61
2023-04-19T17:59:17.762Z,15.53
2023-04-19T18:01:46.019Z,15.37
2023-04-19T18:04:13.036Z,15.31
2023-04-19T18:06:40.049Z,15.21
2023-04-19T18:09:11.633Z,15.15
2023-04-19T18:11:41.571Z,14.96
2023-04-19T18:14:10.937Z,14.89
2023-04-19T18:16:40.809Z,14.84
2023-04-19T18:19:09.217Z,14.71
2023-04-19T18:21:37.458Z,14.62
2023-04-19T18:24:07.796Z,14.62
2023-04-19T18:26:38.153Z,14.54
2023-04-19T18:29:04.832Z,14.41
2023-04-19T18:31:31.482Z,14.28
2023-04-19T18:33:58.219Z,14.33
2023-04-19T18:36:26.291Z,14.14
2023-04-19T18:38:52.997Z,14.18
2023-04-19T18:41:19.603Z,14.11
2023-04-19T18:44:00.731Z,14.06
2023-04-19T18:46:33.092Z,13.96
2023-04-19T18:48:59.849Z,13.90
2023-04-19T18:51:27.856Z,13.85
2023-04-19T18:53:59.779Z,13.80
2023-04-19T18:59:11.565Z,13.65
2023-04-19T19:01:41.544Z,13.63
2023-04-19T19:04:28.257Z,13.52
2023-04-19T19:07:00.190Z,13.54
2023-04-19T19:09:36.842Z,13.43
2023-04-19T19:12:06.922Z,13.38
2023-04-19T19:14:36.309Z,13.22
2023-04-19T19:17:06.424Z,13.23
2023-04-19T19:19:33.269Z,13.16
2023-04-19T19:22:01.247Z,13.14
2023-04-19T19:24:27.880Z,13.10
2023-04-19T19:26:56.164Z,13.01
2023-04-19T19:29:22.966Z,12.94
2023-04-19T19:31:49.937Z,12.81
2023-04-19T19:34:27.326Z,12.69
2023-04-19T19:36:56.748Z,12.62
2023-04-19T19:39:24.736Z,12.69
2023-04-19T19:42:05.158Z,12.63
2023-04-19T19:44:32.870Z,12.54
2023-04-19T19:46:59.692Z,12.53
2023-04-19T19:49:26.510Z,12.49
2023-04-19T19:51:58.374Z,12.38
2023-04-19T19:54:27.356Z,12.34
2023-04-19T19:57:31.756Z,12.28
2023-04-19T19:59:40.647Z,12.19
2023-04-19T20:02:07.916Z,12.16
2023-04-19T20:04:34.740Z,12.12
2023-04-19T20:09:32.608Z,11.97
2023-04-19T20:11:59.238Z,12.00
2023-04-19T20:14:27.507Z,11.99
2023-04-19T20:16:54.087Z,11.87
2023-04-19T20:19:20.855Z,11.87
2023-04-19T20:21:47.445Z,11.85
2023-04-19T20:24:14.115Z,11.78
2023-04-19T20:26:42.234Z,11.72
2023-04-19T20:29:15.964Z,11.61
2023-04-19T20:31:48.973Z,11.63
2023-04-19T20:34:28.411Z,11.56
2023-04-19T20:37:08.426Z,11.48
2023-04-19T20:39:48.454Z,11.42
2023-04-19T20:42:30.439Z,11.49
2023-04-19T20:45:04.521Z,11.38
2023-04-19T20:47:44.424Z,11.42
2023-04-19T20:50:17.862Z,11.36
2023-04-19T20:52:57.436Z,11.37
2023-04-19T20:55:30.946Z,11.32
2023-04-19T20:58:11.485Z,11.18
2023-04-19T21:00:51.541Z,11.13
2023-04-19T21:03:24.988Z,11.15
2023-04-19T21:06:04.415Z,11.06
2023-04-19T21:08:44.431Z,11.04
2023-04-19T21:11:17.939Z,10.99
2023-04-19T21:13:58.436Z,10.91
2023-04-19T21:16:32.146Z,10.86
2023-04-19T21:19:11.483Z,10.85
2023-04-19T21:21:44.872Z,10.83
2023-04-19T21:24:24.468Z,10.75
2023-04-19T21:26:57.902Z,10.70
2023-04-19T21:29:39.501Z,10.70
2023-04-19T21:32:19.501Z,10.68
2023-04-19T21:34:52.935Z,10.66
2023-04-19T21:37:32.452Z,10.63
2023-04-19T21:40:07.442Z,10.55
2023-04-19T21:42:47.474Z,10.48
2023-04-19T21:45:28.422Z,10.43
2023-04-19T21:48:02.014Z,10.38
2023-04-19T21:50:41.489Z,10.30
2023-04-19T21:53:14.947Z,10.28
2023-04-19T21:55:55.471Z,10.22
2023-04-19T21:58:28.955Z,10.15
2023-04-19T22:01:10.524Z,10.17
2023-04-19T22:03:44.086Z,10.13
2023-04-19T22:06:23.486Z,10.06
2023-04-19T22:08:56.999Z,10.06
2023-04-19T22:11:36.472Z,9.97
2023-04-19T22:14:16.462Z,9.99
2023-04-19T22:16:57.519Z,9.94
2023-04-19T22:19:37.571Z,9.90
2023-04-19T22:22:11.108Z,9.83
2023-04-19T22:24:57.061Z,9.75
2023-04-19T22:27:30.948Z,9.70
2023-04-19T22:30:11.538Z,9.64
2023-04-19T22:32:46.362Z,9.66
2023-04-19T22:35:26.482Z,9.65
2023-04-19T22:38:00.055Z,9.63
2023-04-19T22:40:39.435Z,9.57
2023-04-19T22:43:12.902Z,9.54
2023-04-19T22:45:52.480Z,9.47
2023-04-19T22:48:27.297Z,9.42
2023-04-19T22:51:06.499Z,9.42
2023-04-19T22:53:40.062Z,9.42
2023-04-19T22:56:19.474Z,9.38
2023-04-19T22:58:53.054Z,9.36
2023-04-19T23:01:32.599Z,9.27
2023-04-19T23:04:07.309Z,9.19
2023-04-19T23:06:48.468Z,9.20
2023-04-19T23:09:28.591Z,9.16
2023-04-19T23:12:02.005Z,9.11
2023-04-19T23:14:41.681Z,9.05
2023-04-19T23:17:15.018Z,9.03
2023-04-19T23:19:56.480Z,9.01
2023-04-19T23:22:29.899Z,8.92
2023-04-19T23:25:09.500Z,8.91
2023-04-19T23:27:49.538Z,8.80
2023-04-19T23:30:29.561Z,8.73
2023-04-19T23:33:09.484Z,8.66
2023-04-19T23:35:44.258Z,8.60
2023-04-19T23:38:23.609Z,8.63
2023-04-19T23:41:03.667Z,8.49
2023-04-19T23:43:36.998Z,8.44
2023-04-19T23:46:16.551Z,8.43
2023-04-19T23:48:50.015Z,8.33
2023-04-19T23:51:30.438Z,8.30
2023-04-19T23:54:10.482Z,8.27
2023-04-19T23:56:43.942Z,8.18
2023-04-19T23:59:23.492Z,8.15
